sensor_id;sensor_type;location;lat;lon;timestamp;temperature;humidity
23801;DHT22;12081;48.614;10.226;2024-02-14T00:01:25;0.20;99.90
23801;DHT22;12081;48.614;10.226;2024-02-14T00:04:09;0.30;99.90
23801;DHT22;12081;48.614;10.226;2024-02-14T00:06:54;0.20;99.90
23801;DHT22;12081;48.614;10.226;2024-02-14T00:09:39;0.10;99.90
23801;DHT22;12081;48.614;10.226;2024-02-14T00:12:23;0.10;99.90
23801;DHT22;12081;48.614;10.226;2024-02-14T00:15:09;0.10;99.90
23801;DHT22;12081;48.614;10.226;2024-02-14T00:17:54;-0.10;99.90
23801;DHT22;12081;48.614;10.226;2024-02-14T00:20:38;0.00;99.90
23801;DHT22;12081;48.614;10.226;2024-02-14T00:23:26;0.00;99.90
23801;DHT22;12081;48.614;10.226;2024-02-14T00:26:10;0.10;99.90
23801;DHT22;12081;48.614;10.226;2024-02-14T00:28:55;0.10;99.90
23801;DHT22;12081;48.614;10.226;2024-02-14T00:31:40;0.00;99.90
23801;DHT22;12081;48.614;10.226;2024-02-14T00:34:25;0.00;99.90
23801;DHT22;12081;48.614;10.226;2024-02-14T00:37:09;0.00;99.90
23801;DHT22;12081;48.614;10.226;2024-02-14T00:39:55;0.00;99.90
23801;DHT22;12081;48.614;10.226;2024-02-14T00:42:41;0.00;99.90
23801;DHT22;12081;48.614;10.226;2024-02-14T00:48:10;0.00;99.90
23801;DHT22;12081;48.614;10.226;2024-02-14T00:50:55;-0.20;99.90
23801;DHT22;12081;48.614;10.226;2024-02-14T00:53:39;-0.20;99.90
23801;DHT22;12081;48.614;10.226;2024-02-14T00:59:09;-0.20;99.90
23801;DHT22;12081;48.614;10.226;2024-02-14T01:01:54;0.10;99.90
23801;DHT22;12081;48.614;10.226;2024-02-14T01:04:39;-0.30;99.90
23801;DHT22;12081;48.614;10.226;2024-02-14T01:07:24;-0.60;99.90
23801;DHT22;12081;48.614;10.226;2024-02-14T01:10:09;-0.50;99.90
23801;DHT22;12081;48.614;10.226;2024-02-14T01:12:53;-0.40;99.90
23801;DHT22;12081;48.614;10.226;2024-02-14T01:15:39;-0.40;99.90
23801;DHT22;12081;48.614;10.226;2024-02-14T01:18:24;-0.30;99.90
23801;DHT22;12081;48.614;10.226;2024-02-14T01:21:09;-0.50;99.90
23801;DHT22;12081;48.614;10.226;2024-02-14T01:30:20;0.10;99.90
23801;DHT22;12081;48.614;10.226;2024-02-14T01:33:05;-0.10;99.90
23801;DHT22;12081;48.614;10.226;2024-02-14T01:35:50;0.00;99.90
23801;DHT22;12081;48.614;10.226;2024-02-14T01:38:35;0.10;99.90
23801;DHT22;12081;48.614;10.226;2024-02-14T01:41:19;-0.30;99.90
23801;DHT22;12081;48.614;10.226;2024-02-14T01:44:05;-0.20;99.90
23801;DHT22;12081;48.614;10.226;2024-02-14T01:46:50;-0.60;99.90
23801;DHT22;12081;48.614;10.226;2024-02-14T01:49:37;-0.40;99.90
23801;DHT22;12081;48.614;10.226;2024-02-14T01:52:22;-0.50;99.90
23801;DHT22;12081;48.614;10.226;2024-02-14T01:55:07;-0.70;99.90
23801;DHT22;12081;48.614;10.226;2024-02-14T01:57:53;-0.50;99.90
23801;DHT22;12081;48.614;10.226;2024-02-14T02:00:38;-0.60;99.90
23801;DHT22;12081;48.614;10.226;2024-02-14T02:03:26;-0.50;99.90
23801;DHT22;12081;48.614;10.226;2024-02-14T02:06:10;-0.70;99.90
23801;DHT22;12081;48.614;10.226;2024-02-14T02:08:55;-0.50;99.90
23801;DHT22;12081;48.614;10.226;2024-02-14T02:11:50;-0.40;99.90
23801;DHT22;12081;48.614;10.226;2024-02-14T02:14:37;-0.60;99.90
23801;DHT22;12081;48.614;10.226;2024-02-14T02:17:24;-0.60;99.90
23801;DHT22;12081;48.614;10.226;2024-02-14T02:20:10;-0.50;99.90
23801;DHT22;12081;48.614;10.226;2024-02-14T02:22:55;-0.50;99.90
23801;DHT22;12081;48.614;10.226;2024-02-14T02:25:41;-0.40;99.90
23801;DHT22;12081;48.614;10.226;2024-02-14T02:28:26;-0.50;99.90
23801;DHT22;12081;48.614;10.226;2024-02-14T02:31:10;-0.20;99.90
23801;DHT22;12081;48.614;10.226;2024-02-14T02:33:55;-0.20;99.90
23801;DHT22;12081;48.614;10.226;2024-02-14T02:36:43;-0.10;99.90
23801;DHT22;12081;48.614;10.226;2024-02-14T02:39:30;-0.30;99.90
23801;DHT22;12081;48.614;10.226;2024-02-14T02:42:14;-0.20;99.90
23801;DHT22;12081;48.614;10.226;2024-02-14T02:47:46;0.00;99.90
23801;DHT22;12081;48.614;10.226;2024-02-14T02:56:05;0.00;99.90
23801;DHT22;12081;48.614;10.226;2024-02-14T03:01:37;0.10;99.90
23801;DHT22;12081;48.614;10.226;2024-02-14T03:07:08;0.30;99.90
23801;DHT22;12081;48.614;10.226;2024-02-14T04:29:48;0.90;99.90
23801;DHT22;12081;48.614;10.226;2024-02-14T05:00:05;1.30;99.90
23801;DHT22;12081;48.614;10.226;2024-02-14T06:30:52;2.10;99.90
23801;DHT22;12081;48.614;10.226;2024-02-14T06:39:06;2.30;99.90
23801;DHT22;12081;48.614;10.226;2024-02-14T06:50:05;2.40;99.90
23801;DHT22;12081;48.614;10.226;2024-02-14T07:07:08;3.00;99.90
23801;DHT22;12081;48.614;10.226;2024-02-14T07:40:10;5.40;99.90
23801;DHT22;12081;48.614;10.226;2024-02-14T09:08:03;6.30;99.90
23801;DHT22;12081;48.614;10.226;2024-02-14T09:27:16;7.30;99.90
23801;DHT22;12081;48.614;10.226;2024-02-14T09:41:36;7.60;99.90
23801;DHT22;12081;48.614;10.226;2024-02-14T09:49:52;8.30;99.90
23801;DHT22;12081;48.614;10.226;2024-02-14T09:52:38;8.40;99.90
23801;DHT22;12081;48.614;10.226;2024-02-14T09:55:23;8.50;99.90
23801;DHT22;12081;48.614;10.226;2024-02-14T10:00:53;8.70;99.90
23801;DHT22;12081;48.614;10.226;2024-02-14T10:03:37;9.30;99.90
23801;DHT22;12081;48.614;10.226;2024-02-14T10:06:22;9.10;99.90
23801;DHT22;12081;48.614;10.226;2024-02-14T10:09:07;11.20;99.90
23801;DHT22;12081;48.614;10.226;2024-02-14T10:11:51;10.00;99.90
23801;DHT22;12081;48.614;10.226;2024-02-14T10:14:38;11.50;99.90
23801;DHT22;12081;48.614;10.226;2024-02-14T10:17:22;13.10;99.90
23801;DHT22;12081;48.614;10.226;2024-02-14T10:20:07;14.60;99.90
23801;DHT22;12081;48.614;10.226;2024-02-14T10:22:51;14.60;99.90
23801;DHT22;12081;48.614;10.226;2024-02-14T10:25:35;16.30;92.10
23801;DHT22;12081;48.614;10.226;2024-02-14T10:28:20;17.40;87.40
23801;DHT22;12081;48.614;10.226;2024-02-14T10:31:05;18.20;76.10
23801;DHT22;12081;48.614;10.226;2024-02-14T10:33:52;19.00;73.00
23801;DHT22;12081;48.614;10.226;2024-02-14T10:36:38;19.20;67.10
23801;DHT22;12081;48.614;10.226;2024-02-14T10:39:25;18.90;65.00
23801;DHT22;12081;48.614;10.226;2024-02-14T10:42:10;18.40;67.20
23801;DHT22;12081;48.614;10.226;2024-02-14T10:44:55;19.80;70.10
23801;DHT22;12081;48.614;10.226;2024-02-14T10:47:42;20.60;70.30
23801;DHT22;12081;48.614;10.226;2024-02-14T10:50:28;20.70;68.30
23801;DHT22;12081;48.614;10.226;2024-02-14T10:53:14;20.50;69.70
23801;DHT22;12081;48.614;10.226;2024-02-14T10:56:02;21.50;69.20
23801;DHT22;12081;48.614;10.226;2024-02-14T10:58:47;19.00;66.10
23801;DHT22;12081;48.614;10.226;2024-02-14T11:01:33;19.10;64.20
23801;DHT22;12081;48.614;10.226;2024-02-14T11:04:18;20.20;66.60
23801;DHT22;12081;48.614;10.226;2024-02-14T11:07:09;20.10;66.20
23801;DHT22;12081;48.614;10.226;2024-02-14T11:10:06;18.90;67.60
23801;DHT22;12081;48.614;10.226;2024-02-14T11:12:54;20.90;62.50
23801;DHT22;12081;48.614;10.226;2024-02-14T11:15:38;22.50;59.00
23801;DHT22;12081;48.614;10.226;2024-02-14T11:18:28;22.40;55.80
23801;DHT22;12081;48.614;10.226;2024-02-14T11:21:17;23.00;54.30
23801;DHT22;12081;48.614;10.226;2024-02-14T11:24:07;23.40;53.80
23801;DHT22;12081;48.614;10.226;2024-02-14T11:26:51;23.70;52.30
23801;DHT22;12081;48.614;10.226;2024-02-14T11:29:38;24.00;52.60
23801;DHT22;12081;48.614;10.226;2024-02-14T11:32:23;24.80;50.70
23801;DHT22;12081;48.614;10.226;2024-02-14T11:35:12;24.60;49.60
23801;DHT22;12081;48.614;10.226;2024-02-14T11:37:56;23.40;52.30
23801;DHT22;12081;48.614;10.226;2024-02-14T11:40:42;22.10;53.60
23801;DHT22;12081;48.614;10.226;2024-02-14T11:43:26;22.50;57.40
23801;DHT22;12081;48.614;10.226;2024-02-14T11:46:11;19.70;59.00
23801;DHT22;12081;48.614;10.226;2024-02-14T11:48:55;18.80;61.70
23801;DHT22;12081;48.614;10.226;2024-02-14T11:51:39;19.90;64.30
23801;DHT22;12081;48.614;10.226;2024-02-14T11:54:25;19.70;64.00
23801;DHT22;12081;48.614;10.226;2024-02-14T11:57:09;20.80;59.90
23801;DHT22;12081;48.614;10.226;2024-02-14T11:59:53;21.80;58.00
23801;DHT22;12081;48.614;10.226;2024-02-14T12:02:38;21.80;57.20
23801;DHT22;12081;48.614;10.226;2024-02-14T12:05:22;21.20;58.50
23801;DHT22;12081;48.614;10.226;2024-02-14T12:08:07;20.60;63.10
23801;DHT22;12081;48.614;10.226;2024-02-14T12:10:53;18.50;69.90
23801;DHT22;12081;48.614;10.226;2024-02-14T12:13:37;18.40;78.30
23801;DHT22;12081;48.614;10.226;2024-02-14T12:16:27;18.50;86.90
23801;DHT22;12081;48.614;10.226;2024-02-14T12:19:15;18.40;92.00
23801;DHT22;12081;48.614;10.226;2024-02-14T12:22:00;15.30;96.50
23801;DHT22;12081;48.614;10.226;2024-02-14T12:24:46;14.80;97.10
23801;DHT22;12081;48.614;10.226;2024-02-14T12:27:32;14.30;99.10
23801;DHT22;12081;48.614;10.226;2024-02-14T12:30:17;14.20;99.90
23801;DHT22;12081;48.614;10.226;2024-02-14T12:33:04;14.90;99.90
23801;DHT22;12081;48.614;10.226;2024-02-14T12:35:54;13.60;99.90
23801;DHT22;12081;48.614;10.226;2024-02-14T12:38:40;13.50;99.90
23801;DHT22;12081;48.614;10.226;2024-02-14T12:41:25;13.70;99.90
23801;DHT22;12081;48.614;10.226;2024-02-14T12:44:13;14.10;99.90
23801;DHT22;12081;48.614;10.226;2024-02-14T12:46:57;13.80;99.90
23801;DHT22;12081;48.614;10.226;2024-02-14T12:49:42;13.70;99.90
23801;DHT22;12081;48.614;10.226;2024-02-14T12:52:27;14.90;99.90
23801;DHT22;12081;48.614;10.226;2024-02-14T12:55:11;14.50;99.90
23801;DHT22;12081;48.614;10.226;2024-02-14T12:57:56;13.70;99.90
23801;DHT22;12081;48.614;10.226;2024-02-14T13:00:41;13.50;99.90
23801;DHT22;12081;48.614;10.226;2024-02-14T13:03:26;14.30;99.90
23801;DHT22;12081;48.614;10.226;2024-02-14T13:06:12;13.40;99.90
23801;DHT22;12081;48.614;10.226;2024-02-14T13:08:58;13.10;99.90
23801;DHT22;12081;48.614;10.226;2024-02-14T13:11:42;14.00;99.90
23801;DHT22;12081;48.614;10.226;2024-02-14T13:14:26;13.30;99.90
23801;DHT22;12081;48.614;10.226;2024-02-14T13:17:10;13.80;99.90
23801;DHT22;12081;48.614;10.226;2024-02-14T13:19:55;13.20;99.90
23801;DHT22;12081;48.614;10.226;2024-02-14T13:22:39;13.70;99.90
23801;DHT22;12081;48.614;10.226;2024-02-14T13:25:23;14.10;99.90
23801;DHT22;12081;48.614;10.226;2024-02-14T13:28:07;13.40;99.90
23801;DHT22;12081;48.614;10.226;2024-02-14T13:30:51;14.50;99.90
23801;DHT22;12081;48.614;10.226;2024-02-14T13:33:35;13.50;99.90
23801;DHT22;12081;48.614;10.226;2024-02-14T13:36:19;14.50;99.90
23801;DHT22;12081;48.614;10.226;2024-02-14T13:39:03;13.10;99.90
23801;DHT22;12081;48.614;10.226;2024-02-14T13:41:47;12.80;99.90
23801;DHT22;12081;48.614;10.226;2024-02-14T13:44:31;13.20;99.90
23801;DHT22;12081;48.614;10.226;2024-02-14T13:47:18;13.90;99.90
23801;DHT22;12081;48.614;10.226;2024-02-14T13:50:03;12.60;99.90
23801;DHT22;12081;48.614;10.226;2024-02-14T13:52:47;12.70;99.90
23801;DHT22;12081;48.614;10.226;2024-02-14T13:55:31;12.70;99.90
23801;DHT22;12081;48.614;10.226;2024-02-14T13:58:15;12.70;99.90
23801;DHT22;12081;48.614;10.226;2024-02-14T14:01:01;12.80;99.90
23801;DHT22;12081;48.614;10.226;2024-02-14T14:03:45;13.40;99.90
23801;DHT22;12081;48.614;10.226;2024-02-14T14:06:31;13.00;99.90
23801;DHT22;12081;48.614;10.226;2024-02-14T14:09:15;13.70;99.90
23801;DHT22;12081;48.614;10.226;2024-02-14T14:11:59;13.80;99.90
23801;DHT22;12081;48.614;10.226;2024-02-14T14:14:43;12.70;99.90
23801;DHT22;12081;48.614;10.226;2024-02-14T14:17:27;12.70;99.90
23801;DHT22;12081;48.614;10.226;2024-02-14T14:20:11;12.70;99.90
23801;DHT22;12081;48.614;10.226;2024-02-14T14:22:56;13.20;99.90
23801;DHT22;12081;48.614;10.226;2024-02-14T14:25:40;12.90;99.90
23801;DHT22;12081;48.614;10.226;2024-02-14T14:28:24;13.00;99.90
23801;DHT22;12081;48.614;10.226;2024-02-14T14:31:11;13.40;99.90
23801;DHT22;12081;48.614;10.226;2024-02-14T14:33:55;13.70;99.90
23801;DHT22;12081;48.614;10.226;2024-02-14T14:36:41;12.80;99.90
23801;DHT22;12081;48.614;10.226;2024-02-14T14:39:26;14.10;99.90
23801;DHT22;12081;48.614;10.226;2024-02-14T14:42:10;13.10;99.90
23801;DHT22;12081;48.614;10.226;2024-02-14T14:44:54;13.30;99.90
23801;DHT22;12081;48.614;10.226;2024-02-14T14:47:38;14.30;99.90
23801;DHT22;12081;48.614;10.226;2024-02-14T14:50:22;13.30;99.90
23801;DHT22;12081;48.614;10.226;2024-02-14T14:53:06;13.20;99.90
23801;DHT22;12081;48.614;10.226;2024-02-14T14:55:55;12.90;99.90
23801;DHT22;12081;48.614;10.226;2024-02-14T14:58:40;12.90;99.90
23801;DHT22;12081;48.614;10.226;2024-02-14T15:01:26;13.40;99.90
23801;DHT22;12081;48.614;10.226;2024-02-14T15:04:11;13.10;99.90
23801;DHT22;12081;48.614;10.226;2024-02-14T15:06:55;12.90;99.90
23801;DHT22;12081;48.614;10.226;2024-02-14T15:09:40;12.90;99.90
23801;DHT22;12081;48.614;10.226;2024-02-14T15:12:25;12.90;99.90
23801;DHT22;12081;48.614;10.226;2024-02-14T15:15:11;13.00;99.90
23801;DHT22;12081;48.614;10.226;2024-02-14T15:17:56;13.30;99.90
23801;DHT22;12081;48.614;10.226;2024-02-14T15:20:40;12.80;99.90
23801;DHT22;12081;48.614;10.226;2024-02-14T15:23:24;12.70;99.90
23801;DHT22;12081;48.614;10.226;2024-02-14T15:26:08;13.70;99.90
23801;DHT22;12081;48.614;10.226;2024-02-14T15:28:56;12.60;99.90
23801;DHT22;12081;48.614;10.226;2024-02-14T15:32:00;14.10;99.90
23801;DHT22;12081;48.614;10.226;2024-02-14T15:35:03;13.70;99.90
23801;DHT22;12081;48.614;10.226;2024-02-14T15:37:49;12.40;99.90
23801;DHT22;12081;48.614;10.226;2024-02-14T15:40:33;12.80;99.90
23801;DHT22;12081;48.614;10.226;2024-02-14T15:43:20;13.80;99.90
23801;DHT22;12081;48.614;10.226;2024-02-14T15:46:04;13.70;99.90
23801;DHT22;12081;48.614;10.226;2024-02-14T15:48:49;13.30;99.90
23801;DHT22;12081;48.614;10.226;2024-02-14T15:51:33;13.00;99.90
23801;DHT22;12081;48.614;10.226;2024-02-14T15:54:17;12.70;99.90
23801;DHT22;12081;48.614;10.226;2024-02-14T15:57:01;12.00;99.90
23801;DHT22;12081;48.614;10.226;2024-02-14T15:59:45;12.00;99.90
23801;DHT22;12081;48.614;10.226;2024-02-14T16:02:29;12.10;99.90
23801;DHT22;12081;48.614;10.226;2024-02-14T16:05:13;11.90;99.90
23801;DHT22;12081;48.614;10.226;2024-02-14T16:07:57;11.90;99.90
23801;DHT22;12081;48.614;10.226;2024-02-14T16:10:42;11.90;99.90
23801;DHT22;12081;48.614;10.226;2024-02-14T16:13:31;12.00;99.90
23801;DHT22;12081;48.614;10.226;2024-02-14T16:16:15;13.40;99.90
23801;DHT22;12081;48.614;10.226;2024-02-14T16:18:59;13.50;99.90
23801;DHT22;12081;48.614;10.226;2024-02-14T16:21:43;11.60;99.90
23801;DHT22;12081;48.614;10.226;2024-02-14T16:24:27;11.60;99.90
23801;DHT22;12081;48.614;10.226;2024-02-14T16:27:13;12.70;99.90
23801;DHT22;12081;48.614;10.226;2024-02-14T16:30:00;12.30;99.90
23801;DHT22;12081;48.614;10.226;2024-02-14T16:32:45;12.90;99.90
23801;DHT22;12081;48.614;10.226;2024-02-14T16:35:31;11.10;99.90
23801;DHT22;12081;48.614;10.226;2024-02-14T16:38:15;11.10;99.90
23801;DHT22;12081;48.614;10.226;2024-02-14T16:40:59;11.00;99.90
23801;DHT22;12081;48.614;10.226;2024-02-14T16:43:44;13.70;99.90
23801;DHT22;12081;48.614;10.226;2024-02-14T16:46:28;10.90;99.90
23801;DHT22;12081;48.614;10.226;2024-02-14T16:49:12;11.40;99.90
23801;DHT22;12081;48.614;10.226;2024-02-14T16:51:57;10.80;99.90
23801;DHT22;12081;48.614;10.226;2024-02-14T16:54:41;10.70;99.90
23801;DHT22;12081;48.614;10.226;2024-02-14T16:57:26;11.60;99.90
23801;DHT22;12081;48.614;10.226;2024-02-14T17:00:10;10.70;99.90
23801;DHT22;12081;48.614;10.226;2024-02-14T17:02:54;10.70;99.90
23801;DHT22;12081;48.614;10.226;2024-02-14T17:05:38;11.40;99.90
23801;DHT22;12081;48.614;10.226;2024-02-14T17:08:24;10.60;99.90
23801;DHT22;12081;48.614;10.226;2024-02-14T17:11:13;10.60;99.90
23801;DHT22;12081;48.614;10.226;2024-02-14T17:13:59;13.20;99.90
23801;DHT22;12081;48.614;10.226;2024-02-14T17:16:47;12.90;99.90
23801;DHT22;12081;48.614;10.226;2024-02-14T17:19:33;11.80;99.90
23801;DHT22;12081;48.614;10.226;2024-02-14T17:22:18;10.70;99.90
23801;DHT22;12081;48.614;10.226;2024-02-14T17:25:02;10.70;99.90
23801;DHT22;12081;48.614;10.226;2024-02-14T17:27:47;10.60;99.90
23801;DHT22;12081;48.614;10.226;2024-02-14T17:30:31;12.20;99.90
23801;DHT22;12081;48.614;10.226;2024-02-14T17:33:16;10.70;99.90
23801;DHT22;12081;48.614;10.226;2024-02-14T17:36:00;10.50;99.90
23801;DHT22;12081;48.614;10.226;2024-02-14T17:38:47;10.50;99.90
23801;DHT22;12081;48.614;10.226;2024-02-14T17:41:32;10.50;99.90
23801;DHT22;12081;48.614;10.226;2024-02-14T17:44:19;10.40;99.90
23801;DHT22;12081;48.614;10.226;2024-02-14T17:47:03;11.20;99.90
23801;DHT22;12081;48.614;10.226;2024-02-14T17:49:49;10.40;99.90
23801;DHT22;12081;48.614;10.226;2024-02-14T17:52:33;11.20;99.90
23801;DHT22;12081;48.614;10.226;2024-02-14T17:55:17;10.30;99.90
23801;DHT22;12081;48.614;10.226;2024-02-14T17:58:02;10.20;99.90
23801;DHT22;12081;48.614;10.226;2024-02-14T18:00:48;10.20;99.90
23801;DHT22;12081;48.614;10.226;2024-02-14T18:03:32;10.20;99.90
23801;DHT22;12081;48.614;10.226;2024-02-14T18:06:16;10.10;99.90
23801;DHT22;12081;48.614;10.226;2024-02-14T18:09:00;10.60;99.90
23801;DHT22;12081;48.614;10.226;2024-02-14T18:11:44;10.00;99.90
23801;DHT22;12081;48.614;10.226;2024-02-14T18:14:28;10.00;99.90
23801;DHT22;12081;48.614;10.226;2024-02-14T18:17:12;10.10;99.90
23801;DHT22;12081;48.614;10.226;2024-02-14T18:19:56;11.20;99.90
23801;DHT22;12081;48.614;10.226;2024-02-14T18:22:41;12.40;99.90
23801;DHT22;12081;48.614;10.226;2024-02-14T18:25:25;10.00;99.90
23801;DHT22;12081;48.614;10.226;2024-02-14T18:28:10;10.00;99.90
23801;DHT22;12081;48.614;10.226;2024-02-14T18:30:54;9.90;99.90
23801;DHT22;12081;48.614;10.226;2024-02-14T18:33:39;9.90;99.90
23801;DHT22;12081;48.614;10.226;2024-02-14T18:36:24;9.90;99.90
23801;DHT22;12081;48.614;10.226;2024-02-14T18:39:08;11.60;99.90
23801;DHT22;12081;48.614;10.226;2024-02-14T18:41:53;10.30;99.90
23801;DHT22;12081;48.614;10.226;2024-02-14T18:44:37;9.90;99.90
23801;DHT22;12081;48.614;10.226;2024-02-14T18:47:23;9.90;99.90
23801;DHT22;12081;48.614;10.226;2024-02-14T18:50:07;9.80;99.90
23801;DHT22;12081;48.614;10.226;2024-02-14T18:52:52;9.80;99.90
23801;DHT22;12081;48.614;10.226;2024-02-14T18:55:37;9.80;99.90
23801;DHT22;12081;48.614;10.226;2024-02-14T18:58:21;9.80;99.90
23801;DHT22;12081;48.614;10.226;2024-02-14T19:01:05;9.80;99.90
23801;DHT22;12081;48.614;10.226;2024-02-14T19:03:54;9.80;99.90
23801;DHT22;12081;48.614;10.226;2024-02-14T19:06:38;9.80;99.90
23801;DHT22;12081;48.614;10.226;2024-02-14T19:09:22;9.70;99.90
23801;DHT22;12081;48.614;10.226;2024-02-14T19:12:06;9.70;99.90
23801;DHT22;12081;48.614;10.226;2024-02-14T19:14:51;9.70;99.90
23801;DHT22;12081;48.614;10.226;2024-02-14T19:17:36;9.70;99.90
23801;DHT22;12081;48.614;10.226;2024-02-14T19:20:21;9.60;99.90
23801;DHT22;12081;48.614;10.226;2024-02-14T19:23:06;9.70;99.90
23801;DHT22;12081;48.614;10.226;2024-02-14T19:25:51;9.60;99.90
23801;DHT22;12081;48.614;10.226;2024-02-14T19:28:38;9.60;99.90
23801;DHT22;12081;48.614;10.226;2024-02-14T19:31:22;9.40;99.90
23801;DHT22;12081;48.614;10.226;2024-02-14T19:34:06;9.60;99.90
23801;DHT22;12081;48.614;10.226;2024-02-14T19:36:51;9.50;99.90
23801;DHT22;12081;48.614;10.226;2024-02-14T19:39:35;9.50;99.90
23801;DHT22;12081;48.614;10.226;2024-02-14T19:42:19;9.50;99.90
23801;DHT22;12081;48.614;10.226;2024-02-14T19:45:05;9.60;99.90
23801;DHT22;12081;48.614;10.226;2024-02-14T19:47:50;9.40;99.90
23801;DHT22;12081;48.614;10.226;2024-02-14T19:50:35;9.40;99.90
23801;DHT22;12081;48.614;10.226;2024-02-14T19:56:05;9.50;99.90
23801;DHT22;12081;48.614;10.226;2024-02-14T20:01:34;9.30;99.90
23801;DHT22;12081;48.614;10.226;2024-02-14T20:04:19;9.20;99.90
23801;DHT22;12081;48.614;10.226;2024-02-14T20:07:03;9.30;99.90
23801;DHT22;12081;48.614;10.226;2024-02-14T20:12:35;9.20;99.90
23801;DHT22;12081;48.614;10.226;2024-02-14T20:15:22;9.00;99.90
23801;DHT22;12081;48.614;10.226;2024-02-14T20:18:06;9.10;99.90
23801;DHT22;12081;48.614;10.226;2024-02-14T20:20:50;9.10;99.90
23801;DHT22;12081;48.614;10.226;2024-02-14T20:23:34;9.10;99.90
23801;DHT22;12081;48.614;10.226;2024-02-14T20:26:19;9.10;99.90
23801;DHT22;12081;48.614;10.226;2024-02-14T20:29:03;9.10;99.90
23801;DHT22;12081;48.614;10.226;2024-02-14T20:31:49;9.00;99.90
23801;DHT22;12081;48.614;10.226;2024-02-14T20:34:37;9.00;99.90
23801;DHT22;12081;48.614;10.226;2024-02-14T20:37:22;9.00;99.90
23801;DHT22;12081;48.614;10.226;2024-02-14T20:40:06;9.00;99.90
23801;DHT22;12081;48.614;10.226;2024-02-14T20:42:51;8.90;99.90
23801;DHT22;12081;48.614;10.226;2024-02-14T20:45:35;8.90;99.90
23801;DHT22;12081;48.614;10.226;2024-02-14T20:53:50;8.90;99.90
23801;DHT22;12081;48.614;10.226;2024-02-14T20:59:19;8.70;99.90
23801;DHT22;12081;48.614;10.226;2024-02-14T21:02:03;8.80;99.90
23801;DHT22;12081;48.614;10.226;2024-02-14T21:04:47;8.80;99.90
23801;DHT22;12081;48.614;10.226;2024-02-14T21:07:31;10.10;99.90
23801;DHT22;12081;48.614;10.226;2024-02-14T21:10:15;8.70;99.90
23801;DHT22;12081;48.614;10.226;2024-02-14T21:13:00;8.70;99.90
23801;DHT22;12081;48.614;10.226;2024-02-14T21:15:43;8.80;99.90
23801;DHT22;12081;48.614;10.226;2024-02-14T21:18:29;8.60;99.90
23801;DHT22;12081;48.614;10.226;2024-02-14T21:21:13;8.50;99.90
23801;DHT22;12081;48.614;10.226;2024-02-14T21:23:57;8.70;99.90
23801;DHT22;12081;48.614;10.226;2024-02-14T21:26:42;8.60;99.90
23801;DHT22;12081;48.614;10.226;2024-02-14T21:29:28;9.80;99.90
23801;DHT22;12081;48.614;10.226;2024-02-14T21:34:58;8.60;99.90
23801;DHT22;12081;48.614;10.226;2024-02-14T21:37:42;8.60;99.90
23801;DHT22;12081;48.614;10.226;2024-02-14T21:40:26;8.60;99.90
23801;DHT22;12081;48.614;10.226;2024-02-14T21:43:10;8.60;99.90
23801;DHT22;12081;48.614;10.226;2024-02-14T21:45:56;8.40;99.90
23801;DHT22;12081;48.614;10.226;2024-02-14T21:48:41;8.50;99.90
23801;DHT22;12081;48.614;10.226;2024-02-14T21:51:25;8.50;99.90
23801;DHT22;12081;48.614;10.226;2024-02-14T21:54:12;8.30;99.90
23801;DHT22;12081;48.614;10.226;2024-02-14T21:56:56;8.20;99.90
23801;DHT22;12081;48.614;10.226;2024-02-14T21:59:40;8.30;99.90
23801;DHT22;12081;48.614;10.226;2024-02-14T22:02:24;8.30;99.90
23801;DHT22;12081;48.614;10.226;2024-02-14T22:05:08;8.30;99.90
23801;DHT22;12081;48.614;10.226;2024-02-14T22:07:52;8.20;99.90
23801;DHT22;12081;48.614;10.226;2024-02-14T22:10:36;8.10;99.90
23801;DHT22;12081;48.614;10.226;2024-02-14T22:13:20;8.10;99.90
23801;DHT22;12081;48.614;10.226;2024-02-14T22:18:49;7.80;99.90
23801;DHT22;12081;48.614;10.226;2024-02-14T22:21:34;8.00;99.90
23801;DHT22;12081;48.614;10.226;2024-02-14T22:24:19;7.80;99.90
23801;DHT22;12081;48.614;10.226;2024-02-14T22:27:06;7.90;99.90
23801;DHT22;12081;48.614;10.226;2024-02-14T22:29:50;7.70;99.90
23801;DHT22;12081;48.614;10.226;2024-02-14T22:32:35;7.80;99.90
23801;DHT22;12081;48.614;10.226;2024-02-14T22:35:19;7.80;99.90
23801;DHT22;12081;48.614;10.226;2024-02-14T22:38:03;7.80;99.90
23801;DHT22;12081;48.614;10.226;2024-02-14T22:40:52;7.70;99.90
23801;DHT22;12081;48.614;10.226;2024-02-14T22:43:36;7.70;99.90
23801;DHT22;12081;48.614;10.226;2024-02-14T22:46:20;7.70;99.90
23801;DHT22;12081;48.614;10.226;2024-02-14T22:49:04;7.60;99.90
23801;DHT22;12081;48.614;10.226;2024-02-14T22:51:50;7.70;99.90
23801;DHT22;12081;48.614;10.226;2024-02-14T22:57:19;7.70;99.90
23801;DHT22;12081;48.614;10.226;2024-02-14T23:00:03;7.80;99.90
23801;DHT22;12081;48.614;10.226;2024-02-14T23:05:35;7.60;99.90
23801;DHT22;12081;48.614;10.226;2024-02-14T23:08:19;7.60;99.90
23801;DHT22;12081;48.614;10.226;2024-02-14T23:13:48;7.40;99.90
23801;DHT22;12081;48.614;10.226;2024-02-14T23:16:32;7.40;99.90
23801;DHT22;12081;48.614;10.226;2024-02-14T23:19:16;7.50;99.90
23801;DHT22;12081;48.614;10.226;2024-02-14T23:24:46;7.50;99.90
23801;DHT22;12081;48.614;10.226;2024-02-14T23:27:30;7.50;99.90
23801;DHT22;12081;48.614;10.226;2024-02-14T23:30:15;7.50;99.90
23801;DHT22;12081;48.614;10.226;2024-02-14T23:32:59;7.60;99.90
23801;DHT22;12081;48.614;10.226;2024-02-14T23:35:43;7.60;99.90
23801;DHT22;12081;48.614;10.226;2024-02-14T23:38:27;7.70;99.90
23801;DHT22;12081;48.614;10.226;2024-02-14T23:41:12;7.70;99.90
23801;DHT22;12081;48.614;10.226;2024-02-14T23:43:57;7.60;99.90
23801;DHT22;12081;48.614;10.226;2024-02-14T23:46:42;7.50;99.90
23801;DHT22;12081;48.614;10.226;2024-02-14T23:49:26;7.50;99.90
23801;DHT22;12081;48.614;10.226;2024-02-14T23:52:11;7.40;99.90
23801;DHT22;12081;48.614;10.226;2024-02-14T23:54:55;7.60;99.90
23801;DHT22;12081;48.614;10.226;2024-02-14T23:57:40;7.60;99.90
